createdAt,value
2018-04-17T00:01:58.565Z,6.00
2018-04-17T00:04:26.110Z,5.73
2018-04-17T00:06:53.636Z,5.00
2018-04-17T00:09:21.198Z,5.80
2018-04-17T00:11:48.738Z,5.47
2018-04-17T00:14:16.250Z,5.27
2018-04-17T00:16:43.775Z,5.97
2018-04-17T00:19:11.337Z,5.30
2018-04-17T00:21:38.831Z,5.70
2018-04-17T00:24:06.326Z,5.83
2018-04-17T00:26:33.861Z,5.67
2018-04-17T00:29:01.393Z,6.20
2018-04-17T00:31:29.673Z,5.57
2018-04-17T00:33:57.177Z,5.23
2018-04-17T00:36:25.586Z,6.13
2018-04-17T00:38:53.081Z,5.40
2018-04-17T00:41:20.595Z,5.70
2018-04-17T00:43:48.130Z,6.53
2018-04-17T00:46:15.646Z,6.00
2018-04-17T00:48:43.179Z,5.87
2018-04-17T00:51:10.684Z,5.67
2018-04-17T00:53:50.171Z,6.20
2018-04-17T00:56:17.683Z,6.20
2018-04-17T00:58:45.215Z,5.87
2018-04-17T01:01:13.489Z,6.27
2018-04-17T01:03:41.779Z,6.10
2018-04-17T01:06:09.275Z,6.10
2018-04-17T01:08:36.769Z,6.60
2018-04-17T01:11:05.074Z,6.10
2018-04-17T01:13:32.606Z,6.37
2018-04-17T01:16:00.129Z,6.43
2018-04-17T01:18:27.662Z,6.30
2018-04-17T01:20:55.193Z,6.77
2018-04-17T01:23:23.474Z,6.30
2018-04-17T01:25:51.011Z,5.97
2018-04-17T01:28:19.282Z,6.60
2018-04-17T01:30:46.813Z,7.93
2018-04-17T01:33:14.339Z,7.10
2018-04-17T01:35:41.877Z,6.83
2018-04-17T01:38:10.153Z,6.43
2018-04-17T01:40:38.410Z,6.43
2018-04-17T01:43:05.921Z,6.47
2018-04-17T01:45:33.440Z,7.00
2018-04-17T01:48:01.724Z,7.27
2018-04-17T01:50:29.990Z,6.33
2018-04-17T01:52:58.281Z,6.10
2018-04-17T01:55:26.575Z,6.60
2018-04-17T01:57:54.113Z,7.10
2018-04-17T02:00:22.371Z,6.50
2018-04-17T02:02:49.872Z,6.50
2018-04-17T02:05:17.436Z,7.73
2018-04-17T02:07:44.962Z,7.73
2018-04-17T02:10:22.957Z,7.43
2018-04-17T02:12:50.446Z,7.23
2018-04-17T02:15:17.950Z,7.83
2018-04-17T02:17:45.483Z,7.20
2018-04-17T02:20:13.000Z,7.40
2018-04-17T02:22:41.288Z,7.27
2018-04-17T02:25:09.569Z,7.43
2018-04-17T02:27:37.860Z,7.57
2018-04-17T02:30:05.382Z,6.70
2018-04-17T02:32:32.879Z,7.30
2018-04-17T02:35:00.406Z,7.07
2018-04-17T02:37:28.685Z,7.83
2018-04-17T02:39:56.941Z,7.10
2018-04-17T02:42:24.462Z,7.73
2018-04-17T02:44:51.982Z,7.70
2018-04-17T02:47:20.264Z,7.40
2018-04-17T02:49:47.771Z,6.90
2018-04-17T02:52:15.295Z,8.73
2018-04-17T02:54:42.815Z,6.80
2018-04-17T02:57:10.341Z,8.00
2018-04-17T02:59:37.869Z,7.57
2018-04-17T03:02:05.369Z,7.53
2018-04-17T03:04:32.880Z,7.33
2018-04-17T03:07:00.395Z,7.43
2018-04-17T03:09:27.878Z,7.30
2018-04-17T03:11:55.417Z,8.37
2018-04-17T03:14:22.915Z,11.57
2018-04-17T03:16:50.417Z,9.10
2018-04-17T03:19:17.938Z,8.87
2018-04-17T03:21:45.454Z,8.83
2018-04-17T03:24:12.993Z,8.20
2018-04-17T03:26:40.493Z,8.87
2018-04-17T03:29:08.002Z,8.40
2018-04-17T03:31:35.525Z,8.03
2018-04-17T03:34:03.056Z,8.33
2018-04-17T03:36:31.330Z,7.60
2018-04-17T03:38:59.725Z,7.20
2018-04-17T03:41:27.992Z,8.23
2018-04-17T03:43:55.503Z,7.70
2018-04-17T03:46:23.023Z,7.13
2018-04-17T03:48:50.518Z,7.33
2018-04-17T03:51:18.034Z,7.50
2018-04-17T03:53:45.549Z,7.80
2018-04-17T03:56:13.056Z,7.43
2018-04-17T03:58:40.563Z,7.40
2018-04-17T04:01:08.059Z,7.83
2018-04-17T04:03:35.564Z,7.43
2018-04-17T04:06:03.082Z,7.10
2018-04-17T04:08:30.611Z,7.80
2018-04-17T04:10:58.112Z,8.43
2018-04-17T04:13:25.647Z,8.67
2018-04-17T04:15:53.133Z,8.00
2018-04-17T04:18:32.443Z,9.43
2018-04-17T04:21:12.397Z,9.17
2018-04-17T04:23:51.769Z,9.60
2018-04-17T04:26:27.003Z,10.80
2018-04-17T04:28:54.511Z,10.13
2018-04-17T04:31:22.016Z,8.77
2018-04-17T04:33:49.536Z,9.20
2018-04-17T04:36:17.092Z,8.90
2018-04-17T04:38:44.653Z,9.07
2018-04-17T04:41:12.178Z,7.60
2018-04-17T04:43:39.733Z,7.20
2018-04-17T04:46:07.250Z,7.30
2018-04-17T04:48:34.790Z,7.20
2018-04-17T04:51:03.082Z,7.70
2018-04-17T04:53:31.347Z,6.90
2018-04-17T04:55:59.668Z,8.20
2018-04-17T04:58:27.194Z,7.73
2018-04-17T05:00:55.498Z,9.00
2018-04-17T05:03:23.000Z,9.13
2018-04-17T05:05:50.523Z,8.13
2018-04-17T05:08:18.029Z,8.13
2018-04-17T05:10:46.306Z,8.17
2018-04-17T05:13:14.598Z,8.50
2018-04-17T05:15:42.882Z,7.87
2018-04-17T05:18:11.176Z,8.60
2018-04-17T05:20:38.683Z,8.00
2018-04-17T05:23:06.240Z,8.27
2018-04-17T05:25:33.781Z,8.90
2018-04-17T05:28:01.267Z,8.80
2018-04-17T05:30:28.778Z,7.17
2018-04-17T05:32:56.301Z,8.10
2018-04-17T05:35:24.570Z,8.67
2018-04-17T05:37:52.853Z,8.10
2018-04-17T05:40:21.121Z,8.17
2018-04-17T05:42:49.411Z,8.13
2018-04-17T05:45:16.929Z,7.87
2018-04-17T05:47:44.443Z,7.60
2018-04-17T05:50:12.010Z,7.67
2018-04-17T05:52:39.486Z,7.60
2018-04-17T05:55:07.025Z,7.97
2018-04-17T05:57:34.594Z,8.20
2018-04-17T06:00:02.142Z,7.83
2018-04-17T06:02:29.640Z,7.73
2018-04-17T06:04:57.165Z,7.83
2018-04-17T06:07:24.663Z,7.13
2018-04-17T06:09:52.197Z,8.10
2018-04-17T06:12:19.730Z,10.00
2018-04-17T06:14:47.311Z,8.03
2018-04-17T06:17:14.851Z,8.27
2018-04-17T06:19:42.354Z,9.00
2018-04-17T06:22:09.909Z,7.87
2018-04-17T06:24:37.449Z,8.73
2018-04-17T06:27:04.951Z,8.70
2018-04-17T06:29:33.253Z,8.40
2018-04-17T06:32:00.761Z,8.20
2018-04-17T06:34:28.296Z,9.17
2018-04-17T06:36:55.802Z,9.20
2018-04-17T06:39:24.069Z,8.90
2018-04-17T06:41:51.614Z,10.33
2018-04-17T06:44:19.124Z,10.13
2018-04-17T06:46:46.660Z,10.73
2018-04-17T06:49:14.936Z,11.50
2018-04-17T06:51:43.237Z,12.20
2018-04-17T06:54:10.764Z,11.90
2018-04-17T06:56:38.284Z,12.30
2018-04-17T06:59:05.837Z,12.63
2018-04-17T07:01:33.376Z,12.30
2018-04-17T07:04:00.885Z,13.27
2018-04-17T07:06:28.440Z,12.13
2018-04-17T07:08:55.963Z,12.50
2018-04-17T07:11:23.529Z,12.17
2018-04-17T07:13:51.063Z,11.53
2018-04-17T07:16:18.585Z,12.47
2018-04-17T07:18:46.083Z,12.50
2018-04-17T07:21:13.677Z,13.00
2018-04-17T07:23:41.243Z,12.80
2018-04-17T07:26:08.761Z,13.63
2018-04-17T07:28:36.286Z,13.33
2018-04-17T07:31:04.594Z,14.60
2018-04-17T07:33:32.113Z,13.83
2018-04-17T07:35:59.658Z,13.17
2018-04-17T07:38:27.177Z,13.90
2018-04-17T07:40:54.738Z,14.73
2018-04-17T07:43:22.250Z,14.63
2018-04-17T07:45:49.801Z,15.40
2018-04-17T07:48:29.173Z,16.80
2018-04-17T07:50:57.466Z,17.40
2018-04-17T07:53:24.979Z,19.43
2018-04-17T07:55:52.529Z,19.87
2018-04-17T07:58:20.048Z,19.00
2018-04-17T08:00:47.582Z,18.37
2018-04-17T08:03:15.901Z,18.23
2018-04-17T08:05:43.412Z,17.17
2018-04-17T08:08:11.715Z,17.50
2018-04-17T08:10:39.252Z,18.03
2018-04-17T08:13:07.553Z,17.50
2018-04-17T08:15:35.073Z,17.33
2018-04-17T08:18:03.408Z,17.67
2018-04-17T08:20:30.938Z,17.53
2018-04-17T08:22:58.528Z,18.20
2018-04-17T08:25:26.103Z,15.73
2018-04-17T08:27:53.680Z,16.37
2018-04-17T08:30:21.179Z,16.10
2018-04-17T08:32:48.761Z,15.67
2018-04-17T08:35:16.293Z,16.70
2018-04-17T08:37:44.613Z,15.50
2018-04-17T08:40:12.133Z,16.03
2018-04-17T08:42:39.685Z,16.03
2018-04-17T08:45:07.224Z,15.60
2018-04-17T08:47:35.524Z,14.90
2018-04-17T08:50:03.820Z,14.90
2018-04-17T08:52:31.383Z,14.93
2018-04-17T08:54:58.900Z,17.37
2018-04-17T08:57:27.213Z,16.60
2018-04-17T08:59:54.802Z,17.10
2018-04-17T09:02:22.352Z,15.23
2018-04-17T09:04:49.893Z,15.10
2018-04-17T09:07:17.423Z,14.60
2018-04-17T09:09:45.737Z,15.63
2018-04-17T09:12:13.249Z,14.97
2018-04-17T09:14:40.790Z,15.83
2018-04-17T09:17:08.318Z,16.17
2018-04-17T09:19:35.860Z,15.80
2018-04-17T09:22:03.372Z,13.30
2018-04-17T09:24:30.905Z,12.80
2018-04-17T09:26:58.407Z,14.70
2018-04-17T09:29:25.954Z,13.73
2018-04-17T09:31:53.464Z,14.20
2018-04-17T09:34:20.999Z,16.90
2018-04-17T09:36:49.291Z,15.30
2018-04-17T09:39:16.829Z,14.03
2018-04-17T09:41:45.123Z,14.00
2018-04-17T09:44:12.628Z,13.53
2018-04-17T09:46:40.166Z,13.03
2018-04-17T09:49:07.694Z,13.60
2018-04-17T09:51:35.205Z,13.77
2018-04-17T09:54:02.761Z,12.50
2018-04-17T09:56:30.292Z,13.97
2018-04-17T09:58:57.845Z,13.40
2018-04-17T10:01:25.391Z,14.90
2018-04-17T10:03:52.927Z,14.40
2018-04-17T10:06:21.202Z,15.17
2018-04-17T10:08:49.509Z,14.80
2018-04-17T10:11:17.034Z,14.90
2018-04-17T10:13:45.329Z,14.40
2018-04-17T10:16:13.620Z,13.63
2018-04-17T10:18:41.154Z,14.10
2018-04-17T10:21:08.679Z,15.50
2018-04-17T10:23:36.193Z,13.90
2018-04-17T10:26:03.723Z,14.00
2018-04-17T10:28:32.024Z,13.43
2018-04-17T10:30:59.539Z,11.70
2018-04-17T10:33:27.043Z,11.80
2018-04-17T10:35:54.564Z,12.80
2018-04-17T10:38:22.848Z,11.23
2018-04-17T10:40:50.385Z,12.10
2018-04-17T10:43:17.933Z,9.90
2018-04-17T10:45:45.472Z,10.17
2018-04-17T10:48:12.984Z,9.70
2018-04-17T10:50:41.257Z,7.67
2018-04-17T10:53:08.808Z,8.00
2018-04-17T10:55:36.297Z,7.97
2018-04-17T10:58:04.590Z,6.70
2018-04-17T11:00:32.118Z,8.30
2018-04-17T11:03:00.405Z,8.00
2018-04-17T11:05:28.701Z,10.13
2018-04-17T11:07:56.226Z,8.70
2018-04-17T11:10:24.533Z,7.03
2018-04-17T11:12:52.057Z,5.50
2018-04-17T11:15:20.345Z,5.40
2018-04-17T11:17:48.621Z,4.50
2018-04-17T11:20:16.935Z,7.87
2018-04-17T11:22:44.431Z,8.67
2018-04-17T11:25:11.966Z,8.77
2018-04-17T11:27:39.469Z,6.70
2018-04-17T11:30:07.765Z,6.07
2018-04-17T11:32:35.280Z,5.43
2018-04-17T11:35:02.797Z,5.97
2018-04-17T11:37:30.345Z,5.90
2018-04-17T11:39:57.897Z,5.60
2018-04-17T11:42:26.168Z,4.50
2018-04-17T11:44:54.957Z,6.10
2018-04-17T11:47:22.504Z,5.97
2018-04-17T11:49:50.784Z,6.00
2018-04-17T11:52:19.091Z,6.40
2018-04-17T11:54:46.620Z,5.53
2018-04-17T11:57:14.904Z,5.07
2018-04-17T11:59:43.188Z,4.53
2018-04-17T12:02:10.718Z,3.90
2018-04-17T12:04:39.015Z,4.10
2018-04-17T12:07:07.302Z,3.70
2018-04-17T12:09:34.858Z,4.20
2018-04-17T12:12:02.379Z,3.33
2018-04-17T12:14:29.878Z,3.27
2018-04-17T12:16:57.405Z,3.30
2018-04-17T12:19:24.924Z,3.03
2018-04-17T12:21:53.218Z,2.90
2018-04-17T12:24:20.725Z,2.40
2018-04-17T12:26:49.004Z,2.83
2018-04-17T12:29:17.286Z,2.63
2018-04-17T12:31:44.832Z,2.20
2018-04-17T12:34:13.094Z,2.83
2018-04-17T12:36:41.449Z,2.70
2018-04-17T12:39:08.937Z,3.23
2018-04-17T12:41:37.198Z,2.70
2018-04-17T12:44:05.518Z,2.87
2018-04-17T12:46:33.030Z,3.37
2018-04-17T12:49:00.549Z,3.60
2018-04-17T12:51:28.043Z,3.50
2018-04-17T12:53:55.540Z,3.70
2018-04-17T12:56:23.104Z,3.00
2018-04-17T12:58:50.621Z,2.83
2018-04-17T13:01:18.145Z,2.97
2018-04-17T13:03:45.666Z,2.33
2018-04-17T13:06:13.950Z,2.43
2018-04-17T13:08:42.255Z,2.23
2018-04-17T13:11:09.816Z,2.97
2018-04-17T13:13:37.356Z,3.50
2018-04-17T13:16:04.845Z,2.33
2018-04-17T13:18:32.378Z,2.60
2018-04-17T13:20:59.894Z,3.17
2018-04-17T13:23:27.379Z,3.30
2018-04-17T13:25:54.953Z,2.70
2018-04-17T13:28:22.475Z,2.50
2018-04-17T13:30:50.009Z,2.50
2018-04-17T13:33:17.501Z,2.60
2018-04-17T13:35:45.779Z,3.07
2018-04-17T13:38:14.042Z,2.27
2018-04-17T13:40:41.565Z,2.80
2018-04-17T13:43:09.092Z,2.50
2018-04-17T13:45:36.622Z,2.90
2018-04-17T13:48:04.928Z,2.50
2018-04-17T13:50:32.459Z,2.60
2018-04-17T13:53:00.766Z,2.40
2018-04-17T13:55:28.265Z,2.10
2018-04-17T13:57:55.770Z,2.60
2018-04-17T14:00:23.309Z,2.60
2018-04-17T14:02:50.993Z,2.10
2018-04-17T14:05:18.605Z,2.33
2018-04-17T14:07:46.149Z,2.43
2018-04-17T14:10:13.664Z,2.47
2018-04-17T14:12:42.131Z,2.23
2018-04-17T14:15:10.413Z,2.80
2018-04-17T14:17:38.708Z,2.47
2018-04-17T14:20:06.255Z,3.00
2018-04-17T14:22:34.556Z,2.33
2018-04-17T14:25:02.091Z,2.33
2018-04-17T14:27:29.591Z,2.20
2018-04-17T14:29:57.116Z,2.37
2018-04-17T14:32:24.674Z,2.33
2018-04-17T14:34:52.190Z,2.53
2018-04-17T14:37:19.729Z,2.03
2018-04-17T14:39:47.228Z,2.40
2018-04-17T14:42:15.537Z,2.20
2018-04-17T14:44:43.064Z,2.00
2018-04-17T14:47:11.364Z,2.30
2018-04-17T14:49:38.902Z,2.30
2018-04-17T14:52:07.234Z,2.07
2018-04-17T14:54:34.762Z,2.10
2018-04-17T14:57:02.262Z,2.10
2018-04-17T14:59:29.794Z,2.10
2018-04-17T15:01:57.297Z,2.23
2018-04-17T15:04:24.857Z,2.40
2018-04-17T15:06:52.368Z,2.60
2018-04-17T15:09:19.925Z,2.20
2018-04-17T15:11:47.440Z,2.27
2018-04-17T15:14:14.962Z,2.97
2018-04-17T15:16:42.465Z,2.30
2018-04-17T15:19:10.757Z,1.97
2018-04-17T15:21:39.070Z,2.13
2018-04-17T15:24:06.586Z,2.33
2018-04-17T15:26:34.899Z,2.30
2018-04-17T15:29:02.454Z,2.30
2018-04-17T15:31:30.015Z,2.20
2018-04-17T15:33:57.549Z,2.10
2018-04-17T15:36:25.829Z,2.23
2018-04-17T15:38:54.108Z,2.23
2018-04-17T15:41:21.661Z,2.00
2018-04-17T15:43:49.976Z,2.00
2018-04-17T15:46:17.507Z,2.30
2018-04-17T15:48:45.032Z,2.70
2018-04-17T15:51:12.531Z,2.63
2018-04-17T15:53:40.051Z,2.33
2018-04-17T15:56:07.555Z,2.90
2018-04-17T15:58:35.121Z,2.73
2018-04-17T16:01:02.629Z,2.43
2018-04-17T16:03:30.206Z,2.83
2018-04-17T16:05:57.733Z,3.07
2018-04-17T16:08:25.272Z,3.13
2018-04-17T16:10:52.772Z,2.63
2018-04-17T16:13:21.081Z,2.63
2018-04-17T16:15:48.588Z,2.50
2018-04-17T16:18:16.110Z,2.80
2018-04-17T16:20:43.623Z,2.50
2018-04-17T16:23:11.889Z,2.70
2018-04-17T16:25:39.415Z,2.77
2018-04-17T16:28:06.923Z,2.80
2018-04-17T16:30:35.207Z,2.57
2018-04-17T16:33:03.543Z,2.50
2018-04-17T16:35:31.001Z,2.57
2018-04-17T16:37:58.579Z,2.90
2018-04-17T16:40:26.861Z,2.40
2018-04-17T16:42:55.169Z,2.80
2018-04-17T16:45:22.799Z,3.03
2018-04-17T16:47:51.409Z,2.77
2018-04-17T16:50:19.149Z,2.77
2018-04-17T16:52:46.704Z,2.50
2018-04-17T16:55:14.227Z,2.90
2018-04-17T16:57:41.963Z,2.93
2018-04-17T17:00:09.742Z,2.50
2018-04-17T17:02:37.240Z,2.90
2018-04-17T17:05:04.786Z,2.70
2018-04-17T17:07:32.471Z,3.20
2018-04-17T17:10:01.074Z,4.23
2018-04-17T17:12:28.633Z,3.40
2018-04-17T17:14:56.229Z,3.10
2018-04-17T17:17:23.736Z,3.00
2018-04-17T17:19:52.144Z,2.90
2018-04-17T17:22:19.774Z,2.73
2018-04-17T17:24:47.268Z,3.30
2018-04-17T17:27:14.790Z,3.00
2018-04-17T17:29:43.083Z,2.80
2018-04-17T17:32:11.390Z,2.90
2018-04-17T17:34:38.900Z,2.40
2018-04-17T17:37:06.397Z,2.80
2018-04-17T17:39:33.935Z,3.03
2018-04-17T17:42:02.268Z,2.93
2018-04-17T17:44:30.157Z,2.10
2018-04-17T17:46:57.859Z,2.63
2018-04-17T17:49:25.401Z,2.60
2018-04-17T17:51:53.695Z,2.70
2018-04-17T17:54:21.293Z,3.00
2018-04-17T17:56:49.094Z,2.90
2018-04-17T17:59:17.516Z,3.00
2018-04-17T18:01:45.082Z,2.80
2018-04-17T18:04:12.628Z,3.27
2018-04-17T18:06:40.304Z,3.20
2018-04-17T18:09:08.173Z,3.30
2018-04-17T18:11:35.692Z,3.43
2018-04-17T18:14:04.001Z,3.50
2018-04-17T18:16:31.516Z,3.17
2018-04-17T18:18:59.827Z,3.10
2018-04-17T18:21:27.357Z,3.03
2018-04-17T18:23:55.659Z,3.50
2018-04-17T18:26:23.185Z,3.57
2018-04-17T18:28:51.502Z,3.70
2018-04-17T18:31:18.987Z,3.40
2018-04-17T18:33:46.500Z,3.50
2018-04-17T18:36:14.034Z,3.67
2018-04-17T18:38:42.312Z,3.83
2018-04-17T18:41:10.605Z,4.30
2018-04-17T18:43:38.188Z,4.40
2018-04-17T18:46:05.688Z,4.07
2018-04-17T18:48:34.030Z,4.10
2018-04-17T18:51:01.554Z,4.10
2018-04-17T18:53:29.842Z,4.53
2018-04-17T18:55:57.389Z,4.50
2018-04-17T18:58:25.674Z,4.07
2018-04-17T19:00:53.221Z,5.00
2018-04-17T19:03:21.494Z,4.57
2018-04-17T19:05:49.790Z,4.13
2018-04-17T19:08:17.319Z,4.90
2018-04-17T19:10:44.855Z,5.10
2018-04-17T19:13:12.364Z,4.80
2018-04-17T19:15:39.930Z,5.07
2018-04-17T19:18:07.435Z,4.90
2018-04-17T19:20:34.982Z,4.67
2018-04-17T19:23:02.501Z,5.00
2018-04-17T19:25:30.075Z,4.73
2018-04-17T19:27:57.650Z,5.47
2018-04-17T19:30:25.892Z,5.60
2018-04-17T19:32:54.200Z,5.57
2018-04-17T19:35:21.742Z,4.83
2018-04-17T19:37:49.282Z,5.80
2018-04-17T19:40:17.593Z,5.10
2018-04-17T19:42:45.154Z,5.07
2018-04-17T19:45:12.686Z,4.70
2018-04-17T19:47:40.212Z,5.80
2018-04-17T19:50:07.755Z,5.33
2018-04-17T19:52:35.269Z,4.87
2018-04-17T19:55:02.801Z,4.90
2018-04-17T19:57:31.062Z,4.97
2018-04-17T19:59:58.578Z,4.77
2018-04-17T20:02:26.105Z,4.30
2018-04-17T20:04:54.414Z,4.40
2018-04-17T20:07:21.969Z,4.80
2018-04-17T20:09:49.485Z,4.50
2018-04-17T20:12:17.748Z,5.00
2018-04-17T20:14:45.299Z,5.00
2018-04-17T20:17:12.798Z,5.60
2018-04-17T20:19:41.105Z,5.40
2018-04-17T20:22:08.623Z,5.30
2018-04-17T20:24:36.901Z,5.63
2018-04-17T20:27:05.209Z,5.77
2018-04-17T20:29:32.737Z,5.27
2018-04-17T20:32:00.999Z,5.30
2018-04-17T20:34:29.285Z,5.57
2018-04-17T20:36:57.567Z,4.97
2018-04-17T20:39:25.837Z,5.07
2018-04-17T20:41:54.136Z,4.90
2018-04-17T20:44:21.652Z,5.47
2018-04-17T20:46:49.184Z,5.83
2018-04-17T20:49:16.713Z,5.93
2018-04-17T20:51:44.265Z,9.53
2018-04-17T20:54:12.585Z,6.53
2018-04-17T20:56:40.111Z,6.30
2018-04-17T20:59:07.645Z,6.47
2018-04-17T21:01:35.918Z,6.23
2018-04-17T21:04:04.270Z,5.93
2018-04-17T21:06:31.768Z,6.57
2018-04-17T21:08:59.314Z,6.57
2018-04-17T21:11:27.579Z,6.17
2018-04-17T21:13:55.099Z,6.00
2018-04-17T21:16:22.617Z,6.37
2018-04-17T21:18:50.894Z,6.50
2018-04-17T21:21:19.184Z,6.00
2018-04-17T21:23:46.673Z,5.80
2018-04-17T21:26:14.190Z,6.27
2018-04-17T21:28:42.492Z,6.00
2018-04-17T21:31:10.016Z,5.97
2018-04-17T21:33:38.327Z,6.37
2018-04-17T21:36:05.837Z,6.50
2018-04-17T21:38:33.335Z,7.67
2018-04-17T21:41:00.842Z,6.77
2018-04-17T21:43:28.366Z,7.10
2018-04-17T21:45:55.913Z,6.60
2018-04-17T21:48:23.429Z,7.50
2018-04-17T21:50:51.685Z,6.97
2018-04-17T21:53:19.222Z,7.17
2018-04-17T21:55:46.705Z,6.40
2018-04-17T21:58:14.236Z,6.73
2018-04-17T22:00:41.749Z,6.90
2018-04-17T22:03:10.018Z,7.07
2018-04-17T22:05:38.325Z,6.70
2018-04-17T22:08:05.867Z,7.00
2018-04-17T22:10:34.145Z,7.00
2018-04-17T22:13:02.414Z,7.63
2018-04-17T22:15:30.712Z,7.70
2018-04-17T22:17:58.208Z,7.67
2018-04-17T22:20:25.727Z,7.93
2018-04-17T22:22:53.314Z,7.50
2018-04-17T22:25:20.820Z,6.37
2018-04-17T22:27:48.357Z,7.53
2018-04-17T22:30:15.882Z,6.90
2018-04-17T22:32:43.409Z,8.10
2018-04-17T22:35:11.699Z,7.50
2018-04-17T22:37:39.205Z,7.43
2018-04-17T22:40:06.777Z,7.00
2018-04-17T22:42:34.300Z,7.73
2018-04-17T22:45:01.846Z,7.30
2018-04-17T22:47:29.348Z,8.33
2018-04-17T22:49:56.853Z,7.40
2018-04-17T22:52:24.373Z,7.70
2018-04-17T22:54:51.919Z,7.83
2018-04-17T22:57:19.464Z,7.30
2018-04-17T22:59:47.031Z,8.30
2018-04-17T23:02:14.556Z,8.27
2018-04-17T23:04:42.057Z,7.67
2018-04-17T23:07:09.602Z,8.77
2018-04-17T23:09:37.155Z,8.40
2018-04-17T23:12:04.645Z,8.47
2018-04-17T23:14:32.186Z,7.67
2018-04-17T23:16:59.693Z,8.27
2018-04-17T23:19:27.217Z,8.37
2018-04-17T23:21:54.750Z,7.10
2018-04-17T23:24:22.285Z,7.90
2018-04-17T23:26:49.810Z,8.10
2018-04-17T23:29:18.092Z,8.10
2018-04-17T23:31:45.634Z,8.50
2018-04-17T23:34:13.164Z,7.63
2018-04-17T23:36:40.660Z,7.33
2018-04-17T23:39:08.213Z,8.80
2018-04-17T23:41:35.732Z,8.60
2018-04-17T23:44:03.285Z,8.47
2018-04-17T23:46:31.575Z,9.00
2018-04-17T23:48:59.092Z,8.93
2018-04-17T23:51:26.602Z,8.70
2018-04-17T23:53:54.126Z,8.97
2018-04-17T23:56:21.629Z,8.70
2018-04-17T23:58:49.158Z,8.57
